createdAt,value
2023-01-11T00:00:58.276Z,979.36
2023-01-11T00:01:58.326Z,979.33
2023-01-11T00:02:58.259Z,979.30
2023-01-11T00:03:58.231Z,979.27
2023-01-11T00:04:58.280Z,979.30
2023-01-11T00:05:58.209Z,979.32
2023-01-11T00:06:58.357Z,979.38
2023-01-11T00:07:58.171Z,979.34
2023-01-11T00:08:58.165Z,979.29
2023-01-11T00:09:58.144Z,979.25
2023-01-11T00:10:58.139Z,979.24
2023-01-11T00:11:58.140Z,979.25
2023-01-11T00:12:58.113Z,979.27
2023-01-11T00:13:58.115Z,979.26
2023-01-11T00:14:58.084Z,979.28
2023-01-11T00:15:58.194Z,979.18
2023-01-11T00:16:58.057Z,979.18
2023-01-11T00:17:58.047Z,979.18
2023-01-11T00:18:58.030Z,979.20
2023-01-11T00:19:58.028Z,979.23
2023-01-11T00:20:58.001Z,979.13
2023-01-11T00:21:58.341Z,979.15
2023-01-11T00:22:57.982Z,979.19
2023-01-11T00:23:57.960Z,979.14
2023-01-11T00:24:57.957Z,979.13
2023-01-11T00:25:57.937Z,979.11
2023-01-11T00:26:57.925Z,979.19
2023-01-11T00:27:57.906Z,979.18
2023-01-11T00:28:57.903Z,979.22
2023-01-11T00:29:57.902Z,979.24
2023-01-11T00:30:57.926Z,979.22
2023-01-11T00:31:57.854Z,979.23
2023-01-11T00:32:57.893Z,979.23
2023-01-11T00:33:57.831Z,979.24
2023-01-11T00:34:57.816Z,979.19
2023-01-11T00:35:57.808Z,979.17
2023-01-11T00:36:57.785Z,979.15
2023-01-11T00:37:57.778Z,979.10
2023-01-11T00:38:57.761Z,979.14
2023-01-11T00:39:57.743Z,979.14
2023-01-11T00:40:57.734Z,978.97
2023-01-11T00:41:57.724Z,979.01
2023-01-11T00:42:57.717Z,978.95
2023-01-11T00:43:57.693Z,978.95
2023-01-11T00:44:57.689Z,978.96
2023-01-11T00:45:57.751Z,978.96
2023-01-11T00:46:57.666Z,978.89
2023-01-11T00:47:57.670Z,979.02
2023-01-11T00:48:57.630Z,978.91
2023-01-11T00:49:57.609Z,978.82
2023-01-11T00:50:57.616Z,978.87
2023-01-11T00:51:57.583Z,978.78
2023-01-11T00:52:57.579Z,978.80
2023-01-11T00:53:57.557Z,978.86
2023-01-11T00:54:57.553Z,978.79
2023-01-11T00:55:57.542Z,978.74
2023-01-11T00:56:57.524Z,978.71
2023-01-11T00:57:57.507Z,978.76
2023-01-11T00:58:57.497Z,978.71
2023-01-11T00:59:57.493Z,978.70
2023-01-11T01:00:57.466Z,978.74
2023-01-11T01:01:57.546Z,978.72
2023-01-11T01:02:57.472Z,978.78
2023-01-11T01:03:57.431Z,978.75
2023-01-11T01:04:57.417Z,978.78
2023-01-11T01:05:57.407Z,978.75
2023-01-11T01:06:57.417Z,978.68
2023-01-11T01:07:57.374Z,978.68
2023-01-11T01:08:57.366Z,978.73
2023-01-11T01:09:57.348Z,978.70
2023-01-11T01:10:57.341Z,978.67
2023-01-11T01:11:57.328Z,978.66
2023-01-11T01:12:57.311Z,978.69
2023-01-11T01:13:57.294Z,978.68
2023-01-11T01:14:57.281Z,978.66
2023-01-11T01:15:57.338Z,978.68
2023-01-11T01:16:57.256Z,978.67
2023-01-11T01:17:57.274Z,978.67
2023-01-11T01:18:57.260Z,978.64
2023-01-11T01:19:57.233Z,978.64
2023-01-11T01:20:57.204Z,978.57
2023-01-11T01:21:57.196Z,978.65
2023-01-11T01:22:57.175Z,978.62
2023-01-11T01:23:57.167Z,978.57
2023-01-11T01:24:57.149Z,978.55
2023-01-11T01:25:57.139Z,978.56
2023-01-11T01:26:57.123Z,978.56
2023-01-11T01:27:57.108Z,978.54
2023-01-11T01:28:57.101Z,978.61
2023-01-11T01:29:57.077Z,978.56
2023-01-11T01:30:57.140Z,978.53
2023-01-11T01:31:57.050Z,978.53
2023-01-11T01:32:57.095Z,978.50
2023-01-11T01:33:57.064Z,978.50
2023-01-11T01:34:57.024Z,978.44
2023-01-11T01:35:57.003Z,978.49
2023-01-11T01:36:57.001Z,978.56
2023-01-11T01:37:56.973Z,978.49
2023-01-11T01:38:56.963Z,978.56
2023-01-11T01:39:56.956Z,978.58
2023-01-11T01:40:56.962Z,978.62
2023-01-11T01:41:56.924Z,978.69
2023-01-11T01:42:56.919Z,978.64
2023-01-11T01:43:56.903Z,978.61
2023-01-11T01:44:56.890Z,978.66
2023-01-11T01:45:56.901Z,978.64
2023-01-11T01:46:56.851Z,978.66
2023-01-11T01:47:56.856Z,978.66
2023-01-11T01:48:56.824Z,978.68
2023-01-11T01:49:56.846Z,978.70
2023-01-11T01:50:56.803Z,978.69
2023-01-11T01:51:56.797Z,978.65
2023-01-11T01:52:56.787Z,978.67
2023-01-11T01:53:56.785Z,978.66
2023-01-11T01:54:56.751Z,978.68
2023-01-11T01:55:56.743Z,978.57
2023-01-11T01:56:56.726Z,978.54
2023-01-11T01:57:56.714Z,978.53
2023-01-11T01:58:56.699Z,978.53
2023-01-11T01:59:56.685Z,978.53
2023-01-11T02:00:56.679Z,978.48
2023-01-11T02:01:56.680Z,978.41
2023-01-11T02:02:56.714Z,978.41
2023-01-11T02:03:56.635Z,978.37
2023-01-11T02:04:56.617Z,978.32
2023-01-11T02:05:56.622Z,978.30
2023-01-11T02:06:56.656Z,978.43
2023-01-11T02:07:56.577Z,978.31
2023-01-11T02:08:56.565Z,978.36
2023-01-11T02:09:56.544Z,978.43
2023-01-11T02:10:56.534Z,978.43
2023-01-11T02:11:56.524Z,978.31
2023-01-11T02:12:56.512Z,978.35
2023-01-11T02:13:56.497Z,978.31
2023-01-11T02:14:56.483Z,978.29
2023-01-11T02:15:56.501Z,978.25
2023-01-11T02:16:56.458Z,978.24
2023-01-11T02:17:56.454Z,978.23
2023-01-11T02:18:56.431Z,978.19
2023-01-11T02:19:56.417Z,978.20
2023-01-11T02:20:56.406Z,978.17
2023-01-11T02:21:56.409Z,978.17
2023-01-11T02:22:56.374Z,978.18
2023-01-11T02:23:56.364Z,978.17
2023-01-11T02:24:56.360Z,978.14
2023-01-11T02:25:56.340Z,978.11
2023-01-11T02:26:56.317Z,978.18
2023-01-11T02:27:56.312Z,978.11
2023-01-11T02:28:56.291Z,978.08
2023-01-11T02:29:56.283Z,977.99
2023-01-11T02:30:56.335Z,978.02
2023-01-11T02:31:56.259Z,978.05
2023-01-11T02:32:56.239Z,978.06
2023-01-11T02:33:56.227Z,978.06
2023-01-11T02:34:56.214Z,978.04
2023-01-11T02:35:56.199Z,977.99
2023-01-11T02:36:56.188Z,977.99
2023-01-11T02:37:56.197Z,978.00
2023-01-11T02:38:56.158Z,977.96
2023-01-11T02:39:56.146Z,977.93
2023-01-11T02:40:56.136Z,977.95
2023-01-11T02:41:56.119Z,977.95
2023-01-11T02:42:56.121Z,977.91
2023-01-11T02:43:56.097Z,977.98
2023-01-11T02:44:56.074Z,977.90
2023-01-11T02:45:56.076Z,977.89
2023-01-11T02:46:56.054Z,977.86
2023-01-11T02:47:56.039Z,977.89
2023-01-11T02:48:56.025Z,977.87
2023-01-11T02:49:56.011Z,977.86
2023-01-11T02:50:56.003Z,977.86
2023-01-11T02:51:55.985Z,977.83
2023-01-11T02:52:55.973Z,977.83
2023-01-11T02:53:55.979Z,977.98
2023-01-11T02:54:55.945Z,977.95
2023-01-11T02:55:55.932Z,977.86
2023-01-11T02:56:55.918Z,977.87
2023-01-11T02:57:55.904Z,977.86
2023-01-11T02:58:55.893Z,977.81
2023-01-11T02:59:55.880Z,977.85
2023-01-11T03:00:55.878Z,977.85
2023-01-11T03:01:56.007Z,977.82
2023-01-11T03:02:55.968Z,977.80
2023-01-11T03:03:55.829Z,977.86
2023-01-11T03:04:55.808Z,977.85
2023-01-11T03:05:55.803Z,977.84
2023-01-11T03:06:55.833Z,977.89
2023-01-11T03:07:55.772Z,977.75
2023-01-11T03:08:55.757Z,977.79
2023-01-11T03:09:55.770Z,977.69
2023-01-11T03:10:55.730Z,977.74
2023-01-11T03:11:55.722Z,977.71
2023-01-11T03:12:55.695Z,977.68
2023-01-11T03:13:55.709Z,977.71
2023-01-11T03:14:55.674Z,977.68
2023-01-11T03:15:55.836Z,977.69
2023-01-11T03:16:55.665Z,977.74
2023-01-11T03:17:55.640Z,977.69
2023-01-11T03:18:55.629Z,977.63
2023-01-11T03:19:55.619Z,977.68
2023-01-11T03:20:55.595Z,977.69
2023-01-11T03:21:55.592Z,977.75
2023-01-11T03:22:55.574Z,977.71
2023-01-11T03:23:55.559Z,977.68
2023-01-11T03:24:55.544Z,977.68
2023-01-11T03:25:55.568Z,977.66
2023-01-11T03:26:55.514Z,977.71
2023-01-11T03:27:55.508Z,977.67
2023-01-11T03:28:55.501Z,977.78
2023-01-11T03:29:55.474Z,977.70
2023-01-11T03:30:55.470Z,977.62
2023-01-11T03:31:55.453Z,977.69
2023-01-11T03:32:55.433Z,977.65
2023-01-11T03:33:55.428Z,977.65
2023-01-11T03:34:55.416Z,977.66
2023-01-11T03:35:55.398Z,977.59
2023-01-11T03:36:55.394Z,977.63
2023-01-11T03:37:55.374Z,977.51
2023-01-11T03:38:55.369Z,977.51
2023-01-11T03:39:55.348Z,977.55
2023-01-11T03:40:55.339Z,977.51
2023-01-11T03:41:55.357Z,977.53
2023-01-11T03:42:55.306Z,977.56
2023-01-11T03:43:55.304Z,977.58
2023-01-11T03:44:55.278Z,977.55
2023-01-11T03:45:55.262Z,977.55
2023-01-11T03:46:55.270Z,977.50
2023-01-11T03:47:55.247Z,977.48
2023-01-11T03:48:55.247Z,977.46
2023-01-11T03:49:55.216Z,977.51
2023-01-11T03:50:55.207Z,977.48
2023-01-11T03:51:55.187Z,977.45
2023-01-11T03:52:55.170Z,977.46
2023-01-11T03:53:55.156Z,977.42
2023-01-11T03:54:55.146Z,977.44
2023-01-11T03:55:55.134Z,977.44
2023-01-11T03:56:55.117Z,977.47
2023-01-11T03:57:55.128Z,977.50
2023-01-11T03:58:55.087Z,977.42
2023-01-11T03:59:55.083Z,977.40
2023-01-11T04:00:55.073Z,977.42
2023-01-11T04:01:55.055Z,977.38
2023-01-11T04:02:55.046Z,977.33
2023-01-11T04:03:55.074Z,977.31
2023-01-11T04:04:55.014Z,977.33
2023-01-11T04:05:55.011Z,977.33
2023-01-11T04:06:55.021Z,977.28
2023-01-11T04:07:54.973Z,977.29
2023-01-11T04:08:54.960Z,977.28
2023-01-11T04:09:54.957Z,977.33
2023-01-11T04:10:54.929Z,977.28
2023-01-11T04:11:54.923Z,977.22
2023-01-11T04:12:54.915Z,977.26
2023-01-11T04:13:54.914Z,977.22
2023-01-11T04:14:54.887Z,977.20
2023-01-11T04:15:54.865Z,977.23
2023-01-11T04:16:54.857Z,977.17
2023-01-11T04:17:54.843Z,977.19
2023-01-11T04:18:54.835Z,977.22
2023-01-11T04:19:54.827Z,977.19
2023-01-11T04:20:54.798Z,977.16
2023-01-11T04:21:54.794Z,977.16
2023-01-11T04:22:54.770Z,977.15
2023-01-11T04:23:54.766Z,977.17
2023-01-11T04:24:54.748Z,977.13
2023-01-11T04:25:54.733Z,977.21
2023-01-11T04:26:54.724Z,977.19
2023-01-11T04:27:54.710Z,977.17
2023-01-11T04:28:54.698Z,977.09
2023-01-11T04:29:54.703Z,977.09
2023-01-11T04:30:54.674Z,977.11
2023-01-11T04:31:54.739Z,977.09
2023-01-11T04:32:54.642Z,977.10
2023-01-11T04:33:54.624Z,977.12
2023-01-11T04:34:54.616Z,977.10
2023-01-11T04:35:54.594Z,977.09
2023-01-11T04:36:54.584Z,977.08
2023-01-11T04:37:54.583Z,977.10
2023-01-11T04:38:54.552Z,977.12
2023-01-11T04:39:54.550Z,977.09
2023-01-11T04:40:54.535Z,977.10
2023-01-11T04:41:54.525Z,977.07
2023-01-11T04:42:54.513Z,977.03
2023-01-11T04:43:54.503Z,976.92
2023-01-11T04:44:54.514Z,976.90
2023-01-11T04:45:54.500Z,976.88
2023-01-11T04:46:54.475Z,976.97
2023-01-11T04:47:54.442Z,976.93
2023-01-11T04:48:54.437Z,976.92
2023-01-11T04:49:54.412Z,976.92
2023-01-11T04:50:54.401Z,976.92
2023-01-11T04:51:54.400Z,976.92
2023-01-11T04:52:54.381Z,976.98
2023-01-11T04:53:54.361Z,977.07
2023-01-11T04:54:54.348Z,977.05
2023-01-11T04:55:54.327Z,977.02
2023-01-11T04:56:54.318Z,977.00
2023-01-11T04:57:54.305Z,976.99
2023-01-11T04:58:54.317Z,977.11
2023-01-11T04:59:54.279Z,977.10
2023-01-11T05:00:54.320Z,976.99
2023-01-11T05:01:54.280Z,977.01
2023-01-11T05:02:54.252Z,976.97
2023-01-11T05:03:54.347Z,976.95
2023-01-11T05:04:54.213Z,976.92
2023-01-11T05:05:54.212Z,976.99
2023-01-11T05:06:54.279Z,976.94
2023-01-11T05:07:54.182Z,976.96
2023-01-11T05:08:54.161Z,976.91
2023-01-11T05:09:54.155Z,976.88
2023-01-11T05:10:54.135Z,976.92
2023-01-11T05:11:54.126Z,976.87
2023-01-11T05:12:54.110Z,976.83
2023-01-11T05:13:54.095Z,976.84
2023-01-11T05:14:54.073Z,976.86
2023-01-11T05:15:54.066Z,976.85
2023-01-11T05:16:54.080Z,976.84
2023-01-11T05:17:54.062Z,976.84
2023-01-11T05:18:54.047Z,976.81
2023-01-11T05:19:54.015Z,976.78
2023-01-11T05:20:54.009Z,976.74
2023-01-11T05:21:53.990Z,976.78
2023-01-11T05:22:53.983Z,976.77
2023-01-11T05:23:53.954Z,976.77
2023-01-11T05:24:53.994Z,976.78
2023-01-11T05:25:53.932Z,976.75
2023-01-11T05:26:53.920Z,976.76
2023-01-11T05:27:53.911Z,976.67
2023-01-11T05:28:53.893Z,976.69
2023-01-11T05:29:53.882Z,976.65
2023-01-11T05:30:53.865Z,976.69
2023-01-11T05:31:53.915Z,976.66
2023-01-11T05:32:53.838Z,976.68
2023-01-11T05:33:53.923Z,976.78
2023-01-11T05:34:53.810Z,976.71
2023-01-11T05:35:54.524Z,976.68
2023-01-11T05:36:53.793Z,976.71
2023-01-11T05:37:53.773Z,976.71
2023-01-11T05:38:53.756Z,976.73
2023-01-11T05:39:53.748Z,976.71
2023-01-11T05:40:53.734Z,976.76
2023-01-11T05:41:53.719Z,976.76
2023-01-11T05:42:53.705Z,976.74
2023-01-11T05:43:53.694Z,976.76
2023-01-11T05:44:53.687Z,976.69
2023-01-11T05:45:53.721Z,976.73
2023-01-11T05:46:53.669Z,976.68
2023-01-11T05:47:53.643Z,976.75
2023-01-11T05:48:53.627Z,976.75
2023-01-11T05:49:53.639Z,976.67
2023-01-11T05:50:53.604Z,976.74
2023-01-11T05:51:53.592Z,976.69
2023-01-11T05:52:53.597Z,976.67
2023-01-11T05:53:53.569Z,976.65
2023-01-11T05:54:53.616Z,976.67
2023-01-11T05:55:53.559Z,976.63
2023-01-11T05:56:53.525Z,976.67
2023-01-11T05:57:53.505Z,976.65
2023-01-11T05:58:53.494Z,976.59
2023-01-11T05:59:53.480Z,976.65
2023-01-11T06:00:53.497Z,976.65
2023-01-11T06:01:53.479Z,976.67
2023-01-11T06:02:53.565Z,976.66
2023-01-11T06:03:53.432Z,976.66
2023-01-11T06:04:55.403Z,976.68
2023-01-11T06:05:53.413Z,976.53
2023-01-11T06:06:53.434Z,976.63
2023-01-11T06:07:53.370Z,976.64
2023-01-11T06:08:53.361Z,976.60
2023-01-11T06:09:53.348Z,976.60
2023-01-11T06:10:53.333Z,976.66
2023-01-11T06:11:53.321Z,976.62
2023-01-11T06:12:53.309Z,976.61
2023-01-11T06:13:53.289Z,976.60
2023-01-11T06:14:53.284Z,976.73
2023-01-11T06:15:53.257Z,976.59
2023-01-11T06:16:53.285Z,976.63
2023-01-11T06:17:53.245Z,976.57
2023-01-11T06:18:53.248Z,976.61
2023-01-11T06:19:53.203Z,976.62
2023-01-11T06:20:53.200Z,976.65
2023-01-11T06:21:53.227Z,976.57
2023-01-11T06:22:53.177Z,976.50
2023-01-11T06:23:53.158Z,976.41
2023-01-11T06:24:53.150Z,976.41
2023-01-11T06:25:53.131Z,976.36
2023-01-11T06:26:53.120Z,976.32
2023-01-11T06:27:53.098Z,976.26
2023-01-11T06:28:53.100Z,976.35
2023-01-11T06:29:53.082Z,976.24
2023-01-11T06:30:53.130Z,976.38
2023-01-11T06:31:53.055Z,976.36
2023-01-11T06:32:53.040Z,976.31
2023-01-11T06:33:53.027Z,976.28
2023-01-11T06:34:53.012Z,976.22
2023-01-11T06:35:53.004Z,976.21
2023-01-11T06:36:52.993Z,976.19
2023-01-11T06:37:52.999Z,976.19
2023-01-11T06:38:52.960Z,976.19
2023-01-11T06:39:52.946Z,976.27
2023-01-11T06:40:52.935Z,976.19
2023-01-11T06:41:52.915Z,976.22
2023-01-11T06:42:52.903Z,976.17
2023-01-11T06:43:52.994Z,976.24
2023-01-11T06:44:52.872Z,976.20
2023-01-11T06:45:52.950Z,976.22
2023-01-11T06:46:52.851Z,976.25
2023-01-11T06:47:52.845Z,976.16
2023-01-11T06:48:52.855Z,976.34
2023-01-11T06:49:52.817Z,976.32
2023-01-11T06:50:52.814Z,976.30
2023-01-11T06:51:52.795Z,976.23
2023-01-11T06:52:52.774Z,976.19
2023-01-11T06:53:52.781Z,976.28
2023-01-11T06:54:52.752Z,976.15
2023-01-11T06:55:52.730Z,976.16
2023-01-11T06:56:52.716Z,976.23
2023-01-11T06:57:52.705Z,976.17
2023-01-11T06:58:52.691Z,976.20
2023-01-11T06:59:52.688Z,976.19
2023-01-11T07:00:52.763Z,976.22
2023-01-11T07:01:52.653Z,976.22
2023-01-11T07:02:52.652Z,976.21
2023-01-11T07:03:52.634Z,976.24
2023-01-11T07:04:52.646Z,976.19
2023-01-11T07:05:52.619Z,976.20
2023-01-11T07:06:52.606Z,976.13
2023-01-11T07:07:52.573Z,976.17
2023-01-11T07:08:52.575Z,976.15
2023-01-11T07:09:52.561Z,976.17
2023-01-11T07:10:52.529Z,976.21
2023-01-11T07:11:52.527Z,976.21
2023-01-11T07:12:52.507Z,976.14
2023-01-11T07:13:52.844Z,976.14
2023-01-11T07:14:52.484Z,976.16
2023-01-11T07:15:52.528Z,976.25
2023-01-11T07:16:52.451Z,976.25
2023-01-11T07:17:52.437Z,976.25
2023-01-11T07:18:52.431Z,976.26
2023-01-11T07:19:52.412Z,976.25
2023-01-11T07:20:52.490Z,976.18
2023-01-11T07:21:52.382Z,976.20
2023-01-11T07:22:52.367Z,976.14
2023-01-11T07:23:52.352Z,976.21
2023-01-11T07:24:52.336Z,976.24
2023-01-11T07:25:52.452Z,976.16
2023-01-11T07:26:52.318Z,976.21
2023-01-11T07:27:52.304Z,976.17
2023-01-11T07:28:52.292Z,976.19
2023-01-11T07:29:52.286Z,976.16
2023-01-11T07:30:58.724Z,976.14
2023-01-11T07:31:53.284Z,976.14
2023-01-11T07:32:52.234Z,976.06
2023-01-11T07:33:52.226Z,976.15
2023-01-11T07:34:52.224Z,976.13
2023-01-11T07:35:52.194Z,976.13
2023-01-11T07:36:52.186Z,976.17
2023-01-11T07:37:52.176Z,976.17
2023-01-11T07:38:52.160Z,976.11
2023-01-11T07:39:52.139Z,976.17
2023-01-11T07:40:52.162Z,976.23
2023-01-11T07:41:52.141Z,976.17
2023-01-11T07:42:52.110Z,976.14
2023-01-11T07:43:52.103Z,976.15
2023-01-11T07:44:52.083Z,976.09
2023-01-11T07:45:52.173Z,976.08
2023-01-11T07:46:52.212Z,976.14
2023-01-11T07:47:52.032Z,976.08
2023-01-11T07:48:52.043Z,976.03
2023-01-11T07:49:52.004Z,976.00
2023-01-11T07:50:51.990Z,976.04
2023-01-11T07:51:52.005Z,976.11
2023-01-11T07:52:51.971Z,976.05
2023-01-11T07:53:51.952Z,976.01
2023-01-11T07:54:51.955Z,975.99
2023-01-11T07:55:51.931Z,976.03
2023-01-11T07:56:51.917Z,976.00
2023-01-11T07:57:51.927Z,976.04
2023-01-11T07:58:51.907Z,976.07
2023-01-11T07:59:51.878Z,976.08
2023-01-11T08:00:51.901Z,976.08
2023-01-11T08:01:51.884Z,976.09
2023-01-11T08:02:51.960Z,976.01
2023-01-11T08:03:51.910Z,976.00
2023-01-11T08:04:51.815Z,976.04
2023-01-11T08:05:51.816Z,976.04
2023-01-11T08:06:51.784Z,976.02
2023-01-11T08:07:51.769Z,975.98
2023-01-11T08:08:51.757Z,976.03
2023-01-11T08:09:51.737Z,976.04
2023-01-11T08:10:51.729Z,976.04
2023-01-11T08:11:51.714Z,976.01
2023-01-11T08:12:51.766Z,976.06
2023-01-11T08:13:51.713Z,976.11
2023-01-11T08:14:52.029Z,976.12
2023-01-11T08:15:51.968Z,976.25
2023-01-11T08:16:51.647Z,976.18
2023-01-11T08:17:51.632Z,976.28
2023-01-11T08:18:51.629Z,976.18
2023-01-11T08:19:51.621Z,976.11
2023-01-11T08:20:51.591Z,976.18
2023-01-11T08:21:51.578Z,976.14
2023-01-11T08:22:51.768Z,976.19
2023-01-11T08:23:51.557Z,976.06
2023-01-11T08:24:51.546Z,976.10
2023-01-11T08:25:51.534Z,976.09
2023-01-11T08:26:51.581Z,976.08
2023-01-11T08:27:51.506Z,976.03
2023-01-11T08:28:51.718Z,976.03
2023-01-11T08:29:51.498Z,976.01
2023-01-11T08:30:51.502Z,976.08
2023-01-11T08:31:51.456Z,976.03
2023-01-11T08:32:51.439Z,976.00
2023-01-11T08:33:51.428Z,976.08
2023-01-11T08:34:51.433Z,976.02
2023-01-11T08:35:51.389Z,976.06
2023-01-11T08:36:51.385Z,976.07
2023-01-11T08:37:51.367Z,976.06
2023-01-11T08:38:51.352Z,976.04
2023-01-11T08:39:51.353Z,976.02
2023-01-11T08:40:51.328Z,976.07
2023-01-11T08:41:51.337Z,976.09
2023-01-11T08:42:51.306Z,976.07
2023-01-11T08:43:51.294Z,976.12
2023-01-11T08:44:51.276Z,976.07
2023-01-11T08:45:51.283Z,976.05
2023-01-11T08:46:52.610Z,976.16
2023-01-11T08:47:51.235Z,976.12
2023-01-11T08:48:51.221Z,976.18
2023-01-11T08:49:51.198Z,976.10
2023-01-11T08:50:51.190Z,976.13
2023-01-11T08:51:51.172Z,976.17
2023-01-11T08:52:51.630Z,976.13
2023-01-11T08:53:51.247Z,976.19
2023-01-11T08:54:51.145Z,976.13
2023-01-11T08:55:51.124Z,976.17
2023-01-11T08:56:51.118Z,976.18
2023-01-11T08:57:51.099Z,976.17
2023-01-11T08:58:51.131Z,976.09
2023-01-11T08:59:51.072Z,976.10
2023-01-11T09:00:51.059Z,976.08
2023-01-11T09:01:51.078Z,976.14
2023-01-11T09:02:51.089Z,976.09
2023-01-11T09:03:51.025Z,976.06
2023-01-11T09:04:51.000Z,976.07
2023-01-11T09:05:50.992Z,976.10
2023-01-11T09:06:50.981Z,976.03
2023-01-11T09:07:50.963Z,976.03
2023-01-11T09:08:50.964Z,975.97
2023-01-11T09:09:50.951Z,975.99
2023-01-11T09:10:50.930Z,976.07
2023-01-11T09:11:50.907Z,976.04
2023-01-11T09:12:50.894Z,976.07
2023-01-11T09:13:50.883Z,976.06
2023-01-11T09:14:50.896Z,976.11
2023-01-11T09:15:50.879Z,976.10
2023-01-11T09:16:50.846Z,976.10
2023-01-11T09:17:50.959Z,976.08
2023-01-11T09:18:50.818Z,976.09
2023-01-11T09:19:50.816Z,976.02
2023-01-11T09:20:50.787Z,976.08
2023-01-11T09:21:50.771Z,976.04
2023-01-11T09:22:52.803Z,976.06
2023-01-11T09:23:50.760Z,976.02
2023-01-11T09:24:50.778Z,976.05
2023-01-11T09:25:50.724Z,976.07
2023-01-11T09:26:50.766Z,976.06
2023-01-11T09:27:50.717Z,976.03
2023-01-11T09:28:50.772Z,975.94
2023-01-11T09:29:50.670Z,975.97
2023-01-11T09:30:50.659Z,976.00
2023-01-11T09:31:50.637Z,976.01
2023-01-11T09:32:50.633Z,975.95
2023-01-11T09:33:50.634Z,975.92
2023-01-11T09:34:50.640Z,975.89
2023-01-11T09:35:50.597Z,975.99
2023-01-11T09:36:50.582Z,975.95
2023-01-11T09:37:50.560Z,976.01
2023-01-11T09:38:50.553Z,976.01
2023-01-11T09:39:50.541Z,976.02
2023-01-11T09:40:50.522Z,975.94
2023-01-11T09:41:51.042Z,975.99
2023-01-11T09:42:50.500Z,975.96
2023-01-11T09:43:50.484Z,975.97
2023-01-11T09:44:50.472Z,975.94
2023-01-11T09:45:50.447Z,975.91
2023-01-11T09:46:50.523Z,975.92
2023-01-11T09:47:50.431Z,975.91
2023-01-11T09:48:50.414Z,975.88
2023-01-11T09:49:50.428Z,975.95
2023-01-11T09:50:50.473Z,976.03
2023-01-11T09:51:50.368Z,975.93
2023-01-11T09:52:50.367Z,975.95
2023-01-11T09:53:50.461Z,975.92
2023-01-11T09:54:50.370Z,975.90
2023-01-11T09:55:50.322Z,975.89
2023-01-11T09:56:50.309Z,975.84
2023-01-11T09:57:50.377Z,975.87
2023-01-11T09:58:50.288Z,975.86
2023-01-11T09:59:50.308Z,975.81
2023-01-11T10:00:50.345Z,975.87
2023-01-11T10:01:50.234Z,975.94
2023-01-11T10:02:50.224Z,975.96
2023-01-11T10:03:50.212Z,975.96
2023-01-11T10:04:50.292Z,975.97
2023-01-11T10:05:50.211Z,975.97
2023-01-11T10:06:50.173Z,976.01
2023-01-11T10:07:50.161Z,975.95
2023-01-11T10:18:22.258Z,976.00
2023-01-11T10:18:28.982Z,975.99
2023-01-11T10:18:37.722Z,975.92
2023-01-11T10:18:44.797Z,975.98
2023-01-11T10:19:24.520Z,975.95
2023-01-11T10:19:51.068Z,975.95
2023-01-11T10:20:50.001Z,975.90
2023-01-11T10:21:49.995Z,975.92
2023-01-11T10:22:49.953Z,975.88
2023-01-11T10:23:49.963Z,975.86
2023-01-11T10:24:49.986Z,975.93
2023-01-11T10:25:49.930Z,975.92
2023-01-11T10:26:49.977Z,975.85
2023-01-11T10:27:49.895Z,975.88
2023-01-11T10:28:49.891Z,975.89
2023-01-11T10:29:49.885Z,975.85
2023-01-11T10:30:49.863Z,975.88
2023-01-11T10:31:49.918Z,975.90
2023-01-11T10:32:49.841Z,975.87
2023-01-11T10:33:49.817Z,975.82
2023-01-11T10:34:49.801Z,975.89
2023-01-11T10:35:49.784Z,975.91
2023-01-11T10:36:49.768Z,975.88
2023-01-11T10:37:49.813Z,975.84
2023-01-11T10:38:49.772Z,975.83
2023-01-11T10:39:49.739Z,975.84
2023-01-11T10:40:49.721Z,975.81
2023-01-11T10:41:49.710Z,975.81
2023-01-11T10:42:49.693Z,975.79
2023-01-11T10:43:49.675Z,975.73
2023-01-11T10:44:49.668Z,975.80
2023-01-11T10:45:49.699Z,975.73
2023-01-11T10:46:49.635Z,975.80
2023-01-11T10:47:49.632Z,975.88
2023-01-11T10:48:49.614Z,975.77
2023-01-11T10:49:49.601Z,975.82
2023-01-11T10:50:49.590Z,975.78
2023-01-11T10:51:49.589Z,975.77
2023-01-11T10:52:49.553Z,975.78
2023-01-11T10:53:49.569Z,975.84
2023-01-11T10:54:50.288Z,975.85
2023-01-11T10:55:49.534Z,975.82
2023-01-11T10:57:03.584Z,975.81
2023-01-11T10:58:01.616Z,975.73
2023-01-11T10:58:50.505Z,975.72
2023-01-11T10:59:49.465Z,975.73
2023-01-11T11:00:49.468Z,975.72
2023-01-11T11:01:49.693Z,975.85
2023-01-11T11:02:49.443Z,975.77
2023-01-11T11:03:49.409Z,975.73
2023-01-11T11:04:49.399Z,975.67
2023-01-11T11:05:49.482Z,975.73
2023-01-11T11:06:49.367Z,975.70
2023-01-11T11:07:49.369Z,975.69
2023-01-11T11:08:49.348Z,975.58
2023-01-11T11:09:49.373Z,975.64
2023-01-11T11:10:49.323Z,975.63
2023-01-11T11:11:49.312Z,975.69
2023-01-11T11:12:49.291Z,975.68
2023-01-11T11:13:49.287Z,975.66
2023-01-11T11:14:49.290Z,975.59
2023-01-11T11:15:49.249Z,975.71
2023-01-11T11:16:49.238Z,975.67
2023-01-11T11:17:49.223Z,975.61
2023-01-11T11:18:49.209Z,975.62
2023-01-11T11:19:49.449Z,975.69
2023-01-11T11:20:49.181Z,975.63
2023-01-11T11:21:49.183Z,975.65
2023-01-11T11:22:49.157Z,975.64
2023-01-11T11:23:49.158Z,975.62
2023-01-11T11:24:49.128Z,975.61
2023-01-11T11:25:49.142Z,975.63
2023-01-11T11:26:49.122Z,975.64
2023-01-11T11:27:49.096Z,975.76
2023-01-11T11:28:49.076Z,975.65
2023-01-11T11:29:49.063Z,975.69
2023-01-11T11:30:49.053Z,975.59
2023-01-11T11:31:49.040Z,975.63
2023-01-11T11:32:49.021Z,975.65
2023-01-11T11:33:49.242Z,975.60
2023-01-11T11:34:48.995Z,975.59
2023-01-11T11:35:48.982Z,975.58
2023-01-11T11:36:48.971Z,975.64
2023-01-11T11:37:48.959Z,975.58
2023-01-11T11:38:48.946Z,975.51
2023-01-11T11:39:48.935Z,975.56
2023-01-11T11:40:48.920Z,975.45
2023-01-11T11:41:49.028Z,975.47
2023-01-11T11:42:48.893Z,975.46
2023-01-11T11:43:48.881Z,975.53
2023-01-11T11:44:48.863Z,975.52
2023-01-11T11:45:48.987Z,975.41
2023-01-11T11:46:48.836Z,975.51
2023-01-11T11:47:48.824Z,975.48
2023-01-11T11:48:48.804Z,975.53
2023-01-11T11:49:48.820Z,975.45
2023-01-11T11:50:48.785Z,975.46
2023-01-11T11:51:48.777Z,975.49
2023-01-11T11:52:48.752Z,975.46
2023-01-11T11:53:48.745Z,975.45
2023-01-11T11:54:48.733Z,975.48
2023-01-11T11:55:48.714Z,975.44
2023-01-11T11:56:48.700Z,975.40
2023-01-11T11:57:48.703Z,975.46
2023-01-11T11:58:48.674Z,975.44
2023-01-11T11:59:48.657Z,975.30
2023-01-11T12:00:48.651Z,975.38
2023-01-11T12:01:48.691Z,975.41
2023-01-11T12:02:48.618Z,975.40
2023-01-11T12:03:48.607Z,975.40
2023-01-11T12:04:48.700Z,975.33
2023-01-11T12:05:48.576Z,975.43
2023-01-11T12:06:49.354Z,975.34
2023-01-11T12:07:55.186Z,975.31
2023-01-11T12:08:49.558Z,975.41
2023-01-11T12:09:48.532Z,975.39
2023-01-11T12:10:48.519Z,975.35
2023-01-11T12:11:48.506Z,975.32
2023-01-11T12:12:48.480Z,975.30
2023-01-11T12:13:48.492Z,975.26
2023-01-11T12:14:48.454Z,975.24
2023-01-11T12:15:48.445Z,975.33
2023-01-11T12:16:48.547Z,975.29
2023-01-11T12:17:48.413Z,975.25
2023-01-11T12:18:48.399Z,975.24
2023-01-11T12:19:48.389Z,975.25
2023-01-11T12:20:48.374Z,975.25
2023-01-11T12:21:48.363Z,975.29
2023-01-11T12:22:48.352Z,975.31
2023-01-11T12:23:48.340Z,975.34
2023-01-11T12:24:48.326Z,975.38
2023-01-11T12:25:48.312Z,975.37
2023-01-11T12:26:48.473Z,975.38
2023-01-11T12:27:48.290Z,975.35
2023-01-11T12:28:48.268Z,975.27
2023-01-11T12:29:48.361Z,975.37
2023-01-11T12:30:48.271Z,975.28
2023-01-11T12:31:48.224Z,975.38
2023-01-11T12:32:48.216Z,975.36
2023-01-11T12:33:48.201Z,975.34
2023-01-11T12:34:48.184Z,975.39